sensor_id;sensor_type;location;lat;lon;timestamp;P1;durP1;ratioP1;P2;durP2;ratioP2
56593;SDS011;42474;51.660;5.824;2022-12-07T00:02:23;10.4;;;8.3;;
56593;SDS011;42474;51.660;5.824;2022-12-07T00:07:23;11.9;;;8.4;;
56593;SDS011;42474;51.660;5.824;2022-12-07T00:12:23;12.1;;;8.6;;
56593;SDS011;42474;51.660;5.824;2022-12-07T00:17:23;10.7;;;7.9;;
56593;SDS011;42474;51.660;5.824;2022-12-07T00:22:23;11.7;;;8.5;;
56593;SDS011;42474;51.660;5.824;2022-12-07T00:27:23;13.3;;;9.1;;
56593;SDS011;42474;51.660;5.824;2022-12-07T00:32:23;13.8;;;9.1;;
56593;SDS011;42474;51.660;5.824;2022-12-07T00:37:23;12.2;;;9.1;;
56593;SDS011;42474;51.660;5.824;2022-12-07T00:42:22;12.9;;;9.1;;
56593;SDS011;42474;51.660;5.824;2022-12-07T00:47:23;12.8;;;9.1;;
56593;SDS011;42474;51.660;5.824;2022-12-07T00:52:23;11.1;;;8.8;;
56593;SDS011;42474;51.660;5.824;2022-12-07T00:57:23;14.4;;;8.9;;
56593;SDS011;42474;51.660;5.824;2022-12-07T01:02:23;13.3;;;9.6;;
56593;SDS011;42474;51.660;5.824;2022-12-07T01:07:23;14.3;;;9.2;;
56593;SDS011;42474;51.660;5.824;2022-12-07T01:12:23;14.3;;;10.3;;
56593;SDS011;42474;51.660;5.824;2022-12-07T01:17:23;16.2;;;9.8;;
56593;SDS011;42474;51.660;5.824;2022-12-07T01:22:23;14.5;;;9.5;;
56593;SDS011;42474;51.660;5.824;2022-12-07T01:27:22;12.4;;;9.3;;
56593;SDS011;42474;51.660;5.824;2022-12-07T01:32:23;13.1;;;9.5;;
56593;SDS011;42474;51.660;5.824;2022-12-07T01:37:22;14.2;;;9.8;;
56593;SDS011;42474;51.660;5.824;2022-12-07T01:42:23;13.5;;;9.0;;
56593;SDS011;42474;51.660;5.824;2022-12-07T01:47:23;14.3;;;9.5;;
56593;SDS011;42474;51.660;5.824;2022-12-07T01:52:27;12.8;;;9.6;;
56593;SDS011;42474;51.660;5.824;2022-12-07T01:57:23;14.9;;;10.0;;
56593;SDS011;42474;51.660;5.824;2022-12-07T02:02:23;14.5;;;9.3;;
56593;SDS011;42474;51.660;5.824;2022-12-07T02:07:23;13.5;;;9.4;;
56593;SDS011;42474;51.660;5.824;2022-12-07T02:12:23;14.4;;;9.0;;
56593;SDS011;42474;51.660;5.824;2022-12-07T02:17:28;14.3;;;9.3;;
56593;SDS011;42474;51.660;5.824;2022-12-07T02:23:52;13.9;;;9.9;;
56593;SDS011;42474;51.660;5.824;2022-12-07T02:28:36;13.7;;;8.7;;
56593;SDS011;42474;51.660;5.824;2022-12-07T02:32:32;13.7;;;8.8;;
56593;SDS011;42474;51.660;5.824;2022-12-07T02:37:25;14.5;;;8.7;;
56593;SDS011;42474;51.660;5.824;2022-12-07T02:42:25;14.3;;;8.4;;
56593;SDS011;42474;51.660;5.824;2022-12-07T02:47:23;11.8;;;7.9;;
56593;SDS011;42474;51.660;5.824;2022-12-07T02:52:23;13.2;;;7.7;;
56593;SDS011;42474;51.660;5.824;2022-12-07T02:57:50;13.0;;;8.0;;
56593;SDS011;42474;51.660;5.824;2022-12-07T03:02:50;13.7;;;8.2;;
56593;SDS011;42474;51.660;5.824;2022-12-07T03:07:59;11.2;;;7.8;;
56593;SDS011;42474;51.660;5.824;2022-12-07T03:12:24;15.1;;;8.5;;
56593;SDS011;42474;51.660;5.824;2022-12-07T03:17:24;11.5;;;7.9;;
56593;SDS011;42474;51.660;5.824;2022-12-07T03:22:23;11.4;;;7.4;;
56593;SDS011;42474;51.660;5.824;2022-12-07T03:27:25;12.9;;;7.7;;
56593;SDS011;42474;51.660;5.824;2022-12-07T03:32:27;16.2;;;7.2;;
56593;SDS011;42474;51.660;5.824;2022-12-07T03:37:23;11.3;;;6.8;;
56593;SDS011;42474;51.660;5.824;2022-12-07T03:42:23;10.9;;;6.5;;
56593;SDS011;42474;51.660;5.824;2022-12-07T03:47:47;10.6;;;6.6;;
56593;SDS011;42474;51.660;5.824;2022-12-07T03:52:26;11.9;;;6.5;;
56593;SDS011;42474;51.660;5.824;2022-12-07T03:57:23;13.2;;;6.4;;
56593;SDS011;42474;51.660;5.824;2022-12-07T04:02:24;10.6;;;6.0;;
56593;SDS011;42474;51.660;5.824;2022-12-07T04:07:23;12.9;;;6.1;;
56593;SDS011;42474;51.660;5.824;2022-12-07T04:12:23;9.7;;;6.3;;
56593;SDS011;42474;51.660;5.824;2022-12-07T04:17:23;8.6;;;6.0;;
56593;SDS011;42474;51.660;5.824;2022-12-07T04:22:23;8.0;;;5.4;;
56593;SDS011;42474;51.660;5.824;2022-12-07T04:27:23;9.0;;;5.8;;
56593;SDS011;42474;51.660;5.824;2022-12-07T04:32:23;9.6;;;5.4;;
56593;SDS011;42474;51.660;5.824;2022-12-07T04:37:23;8.3;;;5.7;;
56593;SDS011;42474;51.660;5.824;2022-12-07T04:42:23;10.2;;;5.2;;
56593;SDS011;42474;51.660;5.824;2022-12-07T04:47:23;7.8;;;5.0;;
56593;SDS011;42474;51.660;5.824;2022-12-07T04:52:23;7.1;;;4.4;;
56593;SDS011;42474;51.660;5.824;2022-12-07T04:57:23;7.4;;;4.2;;
56593;SDS011;42474;51.660;5.824;2022-12-07T05:02:23;7.1;;;4.2;;
56593;SDS011;42474;51.660;5.824;2022-12-07T05:07:23;8.1;;;4.5;;
56593;SDS011;42474;51.660;5.824;2022-12-07T05:12:23;7.8;;;4.5;;
56593;SDS011;42474;51.660;5.824;2022-12-07T05:17:23;8.2;;;4.0;;
56593;SDS011;42474;51.660;5.824;2022-12-07T05:22:23;7.3;;;4.0;;
56593;SDS011;42474;51.660;5.824;2022-12-07T05:27:23;10.2;;;4.2;;
56593;SDS011;42474;51.660;5.824;2022-12-07T05:32:23;6.2;;;3.9;;
56593;SDS011;42474;51.660;5.824;2022-12-07T05:37:23;6.7;;;3.6;;
56593;SDS011;42474;51.660;5.824;2022-12-07T05:42:23;7.8;;;4.8;;
56593;SDS011;42474;51.660;5.824;2022-12-07T05:47:23;10.1;;;5.6;;
56593;SDS011;42474;51.660;5.824;2022-12-07T05:52:23;9.8;;;5.2;;
56593;SDS011;42474;51.660;5.824;2022-12-07T06:02:23;9.2;;;5.8;;
56593;SDS011;42474;51.660;5.824;2022-12-07T06:07:23;10.5;;;5.7;;
56593;SDS011;42474;51.660;5.824;2022-12-07T06:12:23;8.5;;;5.4;;
56593;SDS011;42474;51.660;5.824;2022-12-07T06:17:23;8.2;;;4.9;;
56593;SDS011;42474;51.660;5.824;2022-12-07T06:22:23;8.8;;;5.2;;
56593;SDS011;42474;51.660;5.824;2022-12-07T06:27:23;7.5;;;4.7;;
56593;SDS011;42474;51.660;5.824;2022-12-07T06:32:23;12.1;;;4.8;;
56593;SDS011;42474;51.660;5.824;2022-12-07T06:37:23;8.3;;;4.5;;
56593;SDS011;42474;51.660;5.824;2022-12-07T06:42:23;8.3;;;4.3;;
56593;SDS011;42474;51.660;5.824;2022-12-07T06:47:23;7.0;;;4.0;;
56593;SDS011;42474;51.660;5.824;2022-12-07T06:52:23;8.0;;;4.1;;
56593;SDS011;42474;51.660;5.824;2022-12-07T06:57:23;5.7;;;3.6;;
56593;SDS011;42474;51.660;5.824;2022-12-07T07:02:23;6.1;;;3.7;;
56593;SDS011;42474;51.660;5.824;2022-12-07T07:07:23;6.3;;;3.6;;
56593;SDS011;42474;51.660;5.824;2022-12-07T07:12:23;8.2;;;3.7;;
56593;SDS011;42474;51.660;5.824;2022-12-07T07:17:23;6.4;;;3.2;;
56593;SDS011;42474;51.660;5.824;2022-12-07T07:22:23;8.6;;;4.2;;
56593;SDS011;42474;51.660;5.824;2022-12-07T07:27:23;8.2;;;4.7;;
56593;SDS011;42474;51.660;5.824;2022-12-07T07:32:23;8.8;;;4.7;;
56593;SDS011;42474;51.660;5.824;2022-12-07T07:37:23;8.5;;;5.1;;
56593;SDS011;42474;51.660;5.824;2022-12-07T07:42:23;8.5;;;4.6;;
56593;SDS011;42474;51.660;5.824;2022-12-07T07:47:23;9.7;;;4.9;;
56593;SDS011;42474;51.660;5.824;2022-12-07T07:52:23;6.6;;;4.6;;
56593;SDS011;42474;51.660;5.824;2022-12-07T07:57:23;8.3;;;4.6;;
56593;SDS011;42474;51.660;5.824;2022-12-07T08:02:23;9.8;;;5.0;;
56593;SDS011;42474;51.660;5.824;2022-12-07T08:07:23;8.4;;;4.5;;
56593;SDS011;42474;51.660;5.824;2022-12-07T08:12:23;9.1;;;4.5;;
56593;SDS011;42474;51.660;5.824;2022-12-07T08:17:23;9.6;;;4.7;;
56593;SDS011;42474;51.660;5.824;2022-12-07T08:22:23;9.4;;;5.5;;
56593;SDS011;42474;51.660;5.824;2022-12-07T08:27:23;9.4;;;4.9;;
56593;SDS011;42474;51.660;5.824;2022-12-07T08:32:23;9.6;;;5.7;;
56593;SDS011;42474;51.660;5.824;2022-12-07T08:37:23;13.4;;;6.5;;
56593;SDS011;42474;51.660;5.824;2022-12-07T08:42:23;14.0;;;6.5;;
56593;SDS011;42474;51.660;5.824;2022-12-07T08:47:23;12.3;;;5.8;;
56593;SDS011;42474;51.660;5.824;2022-12-07T08:52:23;12.8;;;5.8;;
56593;SDS011;42474;51.660;5.824;2022-12-07T08:57:23;10.6;;;6.2;;
56593;SDS011;42474;51.660;5.824;2022-12-07T09:02:23;15.9;;;8.5;;
56593;SDS011;42474;51.660;5.824;2022-12-07T09:07:24;18.8;;;9.2;;
56593;SDS011;42474;51.660;5.824;2022-12-07T09:12:23;16.0;;;8.1;;
56593;SDS011;42474;51.660;5.824;2022-12-07T09:17:23;12.3;;;7.1;;
56593;SDS011;42474;51.660;5.824;2022-12-07T09:22:23;10.1;;;5.8;;
56593;SDS011;42474;51.660;5.824;2022-12-07T09:27:23;7.9;;;5.4;;
56593;SDS011;42474;51.660;5.824;2022-12-07T09:32:23;10.1;;;5.3;;
56593;SDS011;42474;51.660;5.824;2022-12-07T09:37:23;10.2;;;5.5;;
56593;SDS011;42474;51.660;5.824;2022-12-07T09:42:32;7.4;;;5.4;;
56593;SDS011;42474;51.660;5.824;2022-12-07T09:47:23;6.8;;;4.8;;
56593;SDS011;42474;51.660;5.824;2022-12-07T09:52:28;8.0;;;5.0;;
56593;SDS011;42474;51.660;5.824;2022-12-07T09:57:33;10.5;;;4.9;;
56593;SDS011;42474;51.660;5.824;2022-12-07T10:02:42;8.2;;;4.1;;
56593;SDS011;42474;51.660;5.824;2022-12-07T10:07:23;7.1;;;4.2;;
56593;SDS011;42474;51.660;5.824;2022-12-07T10:12:23;10.4;;;4.6;;
56593;SDS011;42474;51.660;5.824;2022-12-07T10:17:39;7.2;;;3.8;;
56593;SDS011;42474;51.660;5.824;2022-12-07T10:22:23;7.1;;;3.7;;
56593;SDS011;42474;51.660;5.824;2022-12-07T10:27:26;6.6;;;4.1;;
56593;SDS011;42474;51.660;5.824;2022-12-07T10:32:32;6.5;;;3.4;;
56593;SDS011;42474;51.660;5.824;2022-12-07T10:37:23;5.9;;;2.5;;
56593;SDS011;42474;51.660;5.824;2022-12-07T10:42:25;5.4;;;2.4;;
56593;SDS011;42474;51.660;5.824;2022-12-07T10:47:34;6.3;;;2.4;;
56593;SDS011;42474;51.660;5.824;2022-12-07T10:52:58;4.0;;;2.2;;
56593;SDS011;42474;51.660;5.824;2022-12-07T10:58:27;6.9;;;3.0;;
56593;SDS011;42474;51.660;5.824;2022-12-07T11:03:42;7.1;;;2.7;;
56593;SDS011;42474;51.660;5.824;2022-12-07T11:08:27;5.0;;;2.7;;
56593;SDS011;42474;51.660;5.824;2022-12-07T11:13:56;5.3;;;2.4;;
56593;SDS011;42474;51.660;5.824;2022-12-07T11:17:45;7.7;;;2.1;;
56593;SDS011;42474;51.660;5.824;2022-12-07T11:22:46;5.5;;;2.2;;
56593;SDS011;42474;51.660;5.824;2022-12-07T11:27:47;5.3;;;1.9;;
56593;SDS011;42474;51.660;5.824;2022-12-07T11:33:00;5.1;;;1.8;;
56593;SDS011;42474;51.660;5.824;2022-12-07T11:37:24;4.8;;;1.7;;
56593;SDS011;42474;51.660;5.824;2022-12-07T11:42:29;3.9;;;1.8;;
56593;SDS011;42474;51.660;5.824;2022-12-07T11:47:25;4.7;;;1.9;;
56593;SDS011;42474;51.660;5.824;2022-12-07T11:52:27;6.4;;;2.0;;
56593;SDS011;42474;51.660;5.824;2022-12-07T11:57:32;4.6;;;2.1;;
56593;SDS011;42474;51.660;5.824;2022-12-07T12:02:37;4.0;;;2.2;;
56593;SDS011;42474;51.660;5.824;2022-12-07T12:07:26;5.2;;;2.2;;
56593;SDS011;42474;51.660;5.824;2022-12-07T12:12:50;5.5;;;2.3;;
56593;SDS011;42474;51.660;5.824;2022-12-07T12:19:18;6.1;;;2.0;;
56593;SDS011;42474;51.660;5.824;2022-12-07T12:22:25;4.6;;;2.4;;
56593;SDS011;42474;51.660;5.824;2022-12-07T12:27:36;6.1;;;2.4;;
56593;SDS011;42474;51.660;5.824;2022-12-07T12:32:36;7.0;;;2.2;;
56593;SDS011;42474;51.660;5.824;2022-12-07T12:37:42;8.4;;;2.3;;
56593;SDS011;42474;51.660;5.824;2022-12-07T12:42:43;5.0;;;2.6;;
56593;SDS011;42474;51.660;5.824;2022-12-07T12:47:52;6.9;;;3.0;;
56593;SDS011;42474;51.660;5.824;2022-12-07T12:53:20;4.7;;;2.6;;
56593;SDS011;42474;51.660;5.824;2022-12-07T12:57:32;11.2;;;2.7;;
56593;SDS011;42474;51.660;5.824;2022-12-07T13:02:27;6.9;;;2.4;;
56593;SDS011;42474;51.660;5.824;2022-12-07T13:07:54;4.8;;;2.4;;
56593;SDS011;42474;51.660;5.824;2022-12-07T13:12:23;5.6;;;2.1;;
56593;SDS011;42474;51.660;5.824;2022-12-07T13:18:03;3.4;;;1.6;;
56593;SDS011;42474;51.660;5.824;2022-12-07T13:22:46;4.4;;;1.7;;
56593;SDS011;42474;51.660;5.824;2022-12-07T13:27:23;2.3;;;1.1;;
56593;SDS011;42474;51.660;5.824;2022-12-07T13:32:24;3.5;;;1.2;;
56593;SDS011;42474;51.660;5.824;2022-12-07T13:37:26;2.2;;;1.2;;
56593;SDS011;42474;51.660;5.824;2022-12-07T13:42:24;2.4;;;1.1;;
56593;SDS011;42474;51.660;5.824;2022-12-07T13:47:36;2.3;;;0.9;;
56593;SDS011;42474;51.660;5.824;2022-12-07T13:52:28;3.3;;;1.1;;
56593;SDS011;42474;51.660;5.824;2022-12-07T13:57:25;2.1;;;1.1;;
56593;SDS011;42474;51.660;5.824;2022-12-07T14:02:25;2.7;;;1.1;;
56593;SDS011;42474;51.660;5.824;2022-12-07T14:07:25;3.6;;;1.1;;
56593;SDS011;42474;51.660;5.824;2022-12-07T14:12:23;5.6;;;1.4;;
56593;SDS011;42474;51.660;5.824;2022-12-07T14:17:27;3.1;;;1.1;;
56593;SDS011;42474;51.660;5.824;2022-12-07T14:22:26;4.2;;;1.3;;
56593;SDS011;42474;51.660;5.824;2022-12-07T14:27:24;3.7;;;1.3;;
56593;SDS011;42474;51.660;5.824;2022-12-07T14:32:25;3.0;;;1.5;;
56593;SDS011;42474;51.660;5.824;2022-12-07T14:37:23;3.8;;;1.6;;
56593;SDS011;42474;51.660;5.824;2022-12-07T14:42:24;3.7;;;1.8;;
56593;SDS011;42474;51.660;5.824;2022-12-07T14:47:23;4.0;;;1.7;;
56593;SDS011;42474;51.660;5.824;2022-12-07T14:52:27;4.8;;;2.0;;
56593;SDS011;42474;51.660;5.824;2022-12-07T14:57:23;6.3;;;2.1;;
56593;SDS011;42474;51.660;5.824;2022-12-07T15:02:23;3.1;;;1.2;;
56593;SDS011;42474;51.660;5.824;2022-12-07T15:07:23;2.9;;;1.3;;
56593;SDS011;42474;51.660;5.824;2022-12-07T15:12:23;5.5;;;1.6;;
56593;SDS011;42474;51.660;5.824;2022-12-07T15:17:23;4.8;;;1.6;;
56593;SDS011;42474;51.660;5.824;2022-12-07T15:22:23;3.1;;;1.2;;
56593;SDS011;42474;51.660;5.824;2022-12-07T15:27:23;2.8;;;1.4;;
56593;SDS011;42474;51.660;5.824;2022-12-07T15:32:23;5.5;;;1.8;;
56593;SDS011;42474;51.660;5.824;2022-12-07T15:37:23;3.5;;;1.5;;
56593;SDS011;42474;51.660;5.824;2022-12-07T15:42:23;2.9;;;1.3;;
56593;SDS011;42474;51.660;5.824;2022-12-07T15:47:23;3.0;;;1.2;;
56593;SDS011;42474;51.660;5.824;2022-12-07T15:52:23;2.8;;;1.4;;
56593;SDS011;42474;51.660;5.824;2022-12-07T15:57:23;4.3;;;1.3;;
56593;SDS011;42474;51.660;5.824;2022-12-07T16:02:23;2.1;;;1.1;;
56593;SDS011;42474;51.660;5.824;2022-12-07T16:07:23;2.0;;;1.2;;
56593;SDS011;42474;51.660;5.824;2022-12-07T16:12:23;2.3;;;1.5;;
56593;SDS011;42474;51.660;5.824;2022-12-07T16:17:23;3.2;;;1.3;;
56593;SDS011;42474;51.660;5.824;2022-12-07T16:22:23;2.6;;;1.5;;
56593;SDS011;42474;51.660;5.824;2022-12-07T16:27:23;4.1;;;1.5;;
56593;SDS011;42474;51.660;5.824;2022-12-07T16:32:23;3.4;;;2.0;;
56593;SDS011;42474;51.660;5.824;2022-12-07T16:37:23;4.1;;;2.4;;
56593;SDS011;42474;51.660;5.824;2022-12-07T16:42:23;3.2;;;2.3;;
56593;SDS011;42474;51.660;5.824;2022-12-07T16:47:23;4.3;;;2.3;;
56593;SDS011;42474;51.660;5.824;2022-12-07T16:52:23;3.6;;;2.7;;
56593;SDS011;42474;51.660;5.824;2022-12-07T16:57:23;4.5;;;2.5;;
56593;SDS011;42474;51.660;5.824;2022-12-07T17:02:24;5.0;;;2.7;;
56593;SDS011;42474;51.660;5.824;2022-12-07T17:07:23;4.7;;;3.3;;
56593;SDS011;42474;51.660;5.824;2022-12-07T17:12:23;5.8;;;4.0;;
56593;SDS011;42474;51.660;5.824;2022-12-07T17:17:23;5.6;;;3.9;;
56593;SDS011;42474;51.660;5.824;2022-12-07T17:22:23;5.9;;;4.2;;
56593;SDS011;42474;51.660;5.824;2022-12-07T17:27:23;5.8;;;4.4;;
56593;SDS011;42474;51.660;5.824;2022-12-07T17:32:23;9.1;;;6.0;;
56593;SDS011;42474;51.660;5.824;2022-12-07T17:37:23;8.6;;;5.7;;
56593;SDS011;42474;51.660;5.824;2022-12-07T17:42:23;7.1;;;5.4;;
56593;SDS011;42474;51.660;5.824;2022-12-07T17:47:23;8.7;;;5.4;;
56593;SDS011;42474;51.660;5.824;2022-12-07T17:52:23;8.4;;;6.0;;
56593;SDS011;42474;51.660;5.824;2022-12-07T17:57:23;9.2;;;5.9;;
56593;SDS011;42474;51.660;5.824;2022-12-07T18:02:23;10.0;;;5.9;;
56593;SDS011;42474;51.660;5.824;2022-12-07T18:07:23;9.0;;;5.8;;
56593;SDS011;42474;51.660;5.824;2022-12-07T18:12:23;7.7;;;5.5;;
56593;SDS011;42474;51.660;5.824;2022-12-07T18:17:23;8.0;;;5.7;;
56593;SDS011;42474;51.660;5.824;2022-12-07T18:22:23;10.0;;;6.5;;
56593;SDS011;42474;51.660;5.824;2022-12-07T18:27:23;11.9;;;6.7;;
56593;SDS011;42474;51.660;5.824;2022-12-07T18:32:23;7.7;;;6.0;;
56593;SDS011;42474;51.660;5.824;2022-12-07T18:37:23;11.1;;;6.5;;
56593;SDS011;42474;51.660;5.824;2022-12-07T18:42:23;10.5;;;6.7;;
56593;SDS011;42474;51.660;5.824;2022-12-07T18:47:23;8.1;;;5.9;;
56593;SDS011;42474;51.660;5.824;2022-12-07T18:52:23;7.7;;;6.1;;
56593;SDS011;42474;51.660;5.824;2022-12-07T18:57:23;8.1;;;5.9;;
56593;SDS011;42474;51.660;5.824;2022-12-07T19:02:23;8.5;;;5.9;;
56593;SDS011;42474;51.660;5.824;2022-12-07T19:07:23;8.5;;;5.8;;
56593;SDS011;42474;51.660;5.824;2022-12-07T19:12:23;8.9;;;6.0;;
56593;SDS011;42474;51.660;5.824;2022-12-07T19:17:23;8.5;;;5.3;;
56593;SDS011;42474;51.660;5.824;2022-12-07T19:22:23;8.7;;;5.9;;
56593;SDS011;42474;51.660;5.824;2022-12-07T19:27:23;7.4;;;5.5;;
56593;SDS011;42474;51.660;5.824;2022-12-07T19:32:23;7.7;;;5.4;;
56593;SDS011;42474;51.660;5.824;2022-12-07T19:37:23;8.2;;;5.3;;
56593;SDS011;42474;51.660;5.824;2022-12-07T19:42:23;7.5;;;6.0;;
56593;SDS011;42474;51.660;5.824;2022-12-07T19:47:23;9.8;;;5.7;;
56593;SDS011;42474;51.660;5.824;2022-12-07T19:52:23;7.9;;;5.3;;
56593;SDS011;42474;51.660;5.824;2022-12-07T19:57:23;10.1;;;6.3;;
56593;SDS011;42474;51.660;5.824;2022-12-07T20:02:23;7.8;;;6.1;;
56593;SDS011;42474;51.660;5.824;2022-12-07T20:07:23;9.9;;;6.2;;
56593;SDS011;42474;51.660;5.824;2022-12-07T20:12:23;11.7;;;6.7;;
56593;SDS011;42474;51.660;5.824;2022-12-07T20:17:23;12.3;;;8.3;;
56593;SDS011;42474;51.660;5.824;2022-12-07T20:22:23;9.0;;;6.6;;
56593;SDS011;42474;51.660;5.824;2022-12-07T20:27:23;10.2;;;6.7;;
56593;SDS011;42474;51.660;5.824;2022-12-07T20:32:23;8.8;;;6.5;;
56593;SDS011;42474;51.660;5.824;2022-12-07T20:37:23;9.0;;;6.4;;
56593;SDS011;42474;51.660;5.824;2022-12-07T20:42:23;11.1;;;6.7;;
56593;SDS011;42474;51.660;5.824;2022-12-07T20:47:23;9.3;;;6.4;;
56593;SDS011;42474;51.660;5.824;2022-12-07T20:52:23;9.1;;;7.0;;
56593;SDS011;42474;51.660;5.824;2022-12-07T20:57:23;7.9;;;6.1;;
56593;SDS011;42474;51.660;5.824;2022-12-07T21:02:23;6.6;;;5.0;;
56593;SDS011;42474;51.660;5.824;2022-12-07T21:07:23;9.4;;;4.8;;
56593;SDS011;42474;51.660;5.824;2022-12-07T21:12:23;6.4;;;4.2;;
56593;SDS011;42474;51.660;5.824;2022-12-07T21:17:23;8.7;;;5.2;;
56593;SDS011;42474;51.660;5.824;2022-12-07T21:22:23;5.7;;;4.3;;
56593;SDS011;42474;51.660;5.824;2022-12-07T21:27:23;5.5;;;4.2;;
56593;SDS011;42474;51.660;5.824;2022-12-07T21:32:23;6.2;;;4.2;;
56593;SDS011;42474;51.660;5.824;2022-12-07T21:37:23;5.6;;;4.5;;
56593;SDS011;42474;51.660;5.824;2022-12-07T21:42:23;8.1;;;4.3;;
56593;SDS011;42474;51.660;5.824;2022-12-07T21:47:23;7.4;;;4.3;;
56593;SDS011;42474;51.660;5.824;2022-12-07T21:52:23;6.2;;;4.3;;
56593;SDS011;42474;51.660;5.824;2022-12-07T21:57:23;6.0;;;4.3;;
56593;SDS011;42474;51.660;5.824;2022-12-07T22:02:23;7.6;;;4.5;;
56593;SDS011;42474;51.660;5.824;2022-12-07T22:07:23;8.3;;;4.8;;
56593;SDS011;42474;51.660;5.824;2022-12-07T22:12:23;5.4;;;4.0;;
56593;SDS011;42474;51.660;5.824;2022-12-07T22:17:23;8.3;;;4.2;;
56593;SDS011;42474;51.660;5.824;2022-12-07T22:22:23;5.0;;;3.9;;
56593;SDS011;42474;51.660;5.824;2022-12-07T22:27:23;6.8;;;3.8;;
56593;SDS011;42474;51.660;5.824;2022-12-07T22:32:23;6.4;;;3.6;;
56593;SDS011;42474;51.660;5.824;2022-12-07T22:37:24;6.2;;;4.0;;
56593;SDS011;42474;51.660;5.824;2022-12-07T22:42:23;6.7;;;4.0;;
56593;SDS011;42474;51.660;5.824;2022-12-07T22:47:23;6.3;;;3.6;;
56593;SDS011;42474;51.660;5.824;2022-12-07T22:52:23;8.5;;;3.5;;
56593;SDS011;42474;51.660;5.824;2022-12-07T22:57:23;6.5;;;3.5;;
56593;SDS011;42474;51.660;5.824;2022-12-07T23:02:23;5.8;;;3.7;;
56593;SDS011;42474;51.660;5.824;2022-12-07T23:07:23;6.0;;;3.7;;
56593;SDS011;42474;51.660;5.824;2022-12-07T23:12:23;8.6;;;3.6;;
56593;SDS011;42474;51.660;5.824;2022-12-07T23:17:23;4.7;;;3.4;;
56593;SDS011;42474;51.660;5.824;2022-12-07T23:22:23;6.2;;;3.2;;
56593;SDS011;42474;51.660;5.824;2022-12-07T23:27:23;4.8;;;3.5;;
56593;SDS011;42474;51.660;5.824;2022-12-07T23:32:23;6.2;;;4.3;;
56593;SDS011;42474;51.660;5.824;2022-12-07T23:37:23;6.7;;;5.0;;
56593;SDS011;42474;51.660;5.824;2022-12-07T23:42:23;5.9;;;4.7;;
56593;SDS011;42474;51.660;5.824;2022-12-07T23:47:23;7.5;;;5.4;;
56593;SDS011;42474;51.660;5.824;2022-12-07T23:52:23;9.0;;;6.0;;
56593;SDS011;42474;51.660;5.824;2022-12-07T23:57:23;10.2;;;6.2;;
